Main page
METAR-TAF:

METAR-TAF

Airports :

Vodochody Airport

Prague, Czech Republic

latitude: 50-12-59N, longitude: 014-23-42E, elevation: 280 m

Current weather observation

The report was made 33 minutes ago, at 13:00 UTC
Wind 3 kt from the Northwest
Temperature 6°C
Humidity 93%
Pressure 1030 hPa
Visibility: 0800 m
Scattered clouds at a height of 200 ft
mist, Partially covered by fog

METAR: LKVO 151300Z 31003KT 5000 0800SW BR PRFG SCT002 06/05 Q1030

Time: 14:33 (13:33 UTC)


TAF: missing

Weather observations and forecasts of more than 4000 airports (METAR and TAF reports).

The available stations are represented by yellow and red dots on the map.

Hover mouse over dot to see the name of the station.

Then click to see weather observations and forecasts.

To change the map : click on the green buttons with a black cross to zoom in, on the green button with a dash to zoom out, or on the green arrows for adjacent maps.


METAR-TAF: